createdAt,value
2022-10-18T00:00:01.096Z,0.40
2022-10-18T00:01:04.663Z,0.50
2022-10-18T00:02:07.235Z,0.40
2022-10-18T00:03:09.777Z,0.57
2022-10-18T00:04:12.332Z,0.60
2022-10-18T00:05:14.754Z,0.30
2022-10-18T00:06:17.211Z,0.47
2022-10-18T00:07:19.772Z,0.50
2022-10-18T00:08:22.421Z,0.57
2022-10-18T00:09:25.035Z,0.60
2022-10-18T00:10:27.612Z,0.40
2022-10-18T00:11:30.389Z,0.40
2022-10-18T00:12:35.609Z,0.52
2022-10-18T00:13:38.482Z,0.63
2022-10-18T00:14:41.009Z,0.40
2022-10-18T00:15:51.939Z,0.50
2022-10-18T00:16:54.355Z,0.50
2022-10-18T00:17:56.874Z,0.60
2022-10-18T00:18:59.310Z,0.47
2022-10-18T00:20:02.207Z,0.50
2022-10-18T00:21:07.395Z,0.40
2022-10-18T00:22:09.930Z,0.40
2022-10-18T00:23:12.491Z,0.43
2022-10-18T00:24:14.942Z,0.60
2022-10-18T00:25:17.444Z,0.40
2022-10-18T00:26:25.439Z,0.50
2022-10-18T00:27:30.453Z,0.40
2022-10-18T00:28:34.659Z,0.55
2022-10-18T00:29:37.147Z,0.55
2022-10-18T00:30:39.647Z,0.43
2022-10-18T00:31:43.801Z,0.45
2022-10-18T00:32:46.155Z,0.60
2022-10-18T00:33:52.996Z,0.50
2022-10-18T00:34:55.323Z,0.50
2022-10-18T00:36:00.842Z,0.40
2022-10-18T00:37:03.294Z,0.50
2022-10-18T00:38:05.711Z,0.60
2022-10-18T00:39:12.118Z,0.60
2022-10-18T00:40:14.531Z,0.50
2022-10-18T00:41:20.247Z,0.35
2022-10-18T00:42:27.859Z,0.47
2022-10-18T00:43:30.414Z,0.30
2022-10-18T00:44:32.793Z,0.40
2022-10-18T00:45:37.755Z,0.40
2022-10-18T00:46:45.678Z,0.50
2022-10-18T00:47:54.091Z,0.30
2022-10-18T00:48:59.464Z,0.50
2022-10-18T00:50:04.772Z,0.52
2022-10-18T00:51:07.142Z,0.40
2022-10-18T00:52:18.242Z,0.40
2022-10-18T00:53:22.989Z,0.45
2022-10-18T00:54:28.155Z,0.43
2022-10-18T00:55:33.552Z,0.45
2022-10-18T00:56:36.312Z,0.40
2022-10-18T00:57:41.771Z,0.45
2022-10-18T00:58:45.890Z,0.60
2022-10-18T00:59:48.519Z,0.40
2022-10-18T01:00:50.979Z,0.60
2022-10-18T01:01:53.429Z,0.50
2022-10-18T01:02:56.827Z,0.50
2022-10-18T01:03:59.462Z,0.50
2022-10-18T01:05:01.844Z,0.50
2022-10-18T01:06:04.506Z,0.40
2022-10-18T01:07:25.449Z,0.73
2022-10-18T01:08:57.281Z,0.40
2022-10-18T01:10:23.557Z,0.55
2022-10-18T01:11:36.112Z,0.40
2022-10-18T01:12:53.293Z,0.45
2022-10-18T01:14:19.185Z,0.40
2022-10-18T01:15:28.084Z,0.50
2022-10-18T01:17:00.415Z,0.45
2022-10-18T01:18:23.939Z,0.60
2022-10-18T01:19:50.024Z,0.60
2022-10-18T01:21:25.118Z,0.43
2022-10-18T01:22:41.784Z,0.50
2022-10-18T01:24:02.113Z,0.47
2022-10-18T01:25:16.781Z,0.52
2022-10-18T01:26:46.454Z,0.50
2022-10-18T01:28:24.375Z,0.30
2022-10-18T01:29:53.256Z,0.50
2022-10-18T01:31:03.651Z,0.45
2022-10-18T01:32:42.712Z,0.50
2022-10-18T01:34:07.758Z,0.50
2022-10-18T01:35:20.074Z,0.50
2022-10-18T01:36:35.784Z,0.43
2022-10-18T01:37:39.852Z,0.40
2022-10-18T01:38:44.861Z,0.40
2022-10-18T01:39:54.334Z,0.50
2022-10-18T01:40:58.060Z,0.40
2022-10-18T01:42:04.114Z,0.40
2022-10-18T01:43:09.572Z,0.50
2022-10-18T01:44:16.325Z,0.30
2022-10-18T01:45:23.395Z,0.50
2022-10-18T01:46:27.988Z,0.40
2022-10-18T01:47:31.565Z,0.40
2022-10-18T01:48:38.075Z,0.50
2022-10-18T01:49:40.820Z,0.63
2022-10-18T01:50:43.206Z,0.40
2022-10-18T01:51:45.601Z,0.55
2022-10-18T01:52:49.644Z,0.40
2022-10-18T01:53:52.231Z,0.50
2022-10-18T01:54:56.151Z,0.50
2022-10-18T01:56:07.435Z,0.50
2022-10-18T01:57:32.544Z,0.40
2022-10-18T01:58:47.300Z,0.50
2022-10-18T02:00:23.896Z,0.43
2022-10-18T02:01:37.613Z,0.32
2022-10-18T02:02:47.626Z,0.40
2022-10-18T02:03:57.519Z,0.63
2022-10-18T02:05:23.121Z,0.40
2022-10-18T02:06:34.837Z,0.40
2022-10-18T02:08:05.665Z,0.40
2022-10-18T02:09:22.350Z,0.40
2022-10-18T02:10:43.625Z,0.50
2022-10-18T02:11:48.589Z,0.55
2022-10-18T02:12:52.871Z,0.32
2022-10-18T02:14:07.252Z,0.60
2022-10-18T02:15:13.353Z,0.45
2022-10-18T02:16:26.809Z,0.40
2022-10-18T02:17:30.505Z,0.57
2022-10-18T02:18:41.447Z,0.50
2022-10-18T02:19:47.618Z,0.40
2022-10-18T02:20:51.345Z,0.50
2022-10-18T02:21:56.107Z,0.50
2022-10-18T02:23:00.623Z,0.43
2022-10-18T02:24:04.095Z,0.50
2022-10-18T02:25:13.455Z,0.40
2022-10-18T02:26:16.507Z,0.30
2022-10-18T02:27:19.275Z,0.50
2022-10-18T02:28:22.330Z,0.50
2022-10-18T02:29:25.290Z,0.40
2022-10-18T02:30:39.679Z,0.40
2022-10-18T02:31:45.691Z,0.50
2022-10-18T02:33:01.158Z,0.30
2022-10-18T02:34:24.687Z,0.40
2022-10-18T02:35:32.170Z,0.40
2022-10-18T02:36:48.160Z,0.50
2022-10-18T02:37:52.767Z,0.40
2022-10-18T02:39:00.383Z,0.60
2022-10-18T02:40:05.225Z,0.43
2022-10-18T02:41:07.964Z,0.50
2022-10-18T02:42:11.611Z,0.30
2022-10-18T02:43:14.379Z,0.30
2022-10-18T02:44:17.049Z,0.35
2022-10-18T02:45:19.591Z,0.47
2022-10-18T02:46:22.293Z,0.40
2022-10-18T02:47:24.711Z,0.40
2022-10-18T02:48:27.187Z,0.40
2022-10-18T02:49:29.558Z,0.55
2022-10-18T02:50:32.051Z,0.60
2022-10-18T02:51:34.642Z,0.40
2022-10-18T02:52:37.113Z,0.40
2022-10-18T02:53:39.651Z,0.47
2022-10-18T02:54:42.035Z,0.60
2022-10-18T02:55:44.415Z,0.50
2022-10-18T02:56:46.816Z,0.60
2022-10-18T02:57:49.344Z,0.40
2022-10-18T02:58:51.776Z,0.45
2022-10-18T02:59:54.159Z,0.43
2022-10-18T03:00:56.527Z,0.50
2022-10-18T03:01:58.999Z,0.50
2022-10-18T03:03:01.439Z,0.65
2022-10-18T03:04:04.903Z,0.35
2022-10-18T03:05:07.575Z,0.40
2022-10-18T03:06:09.966Z,0.40
2022-10-18T03:07:12.530Z,0.40
2022-10-18T03:08:14.859Z,0.50
2022-10-18T03:09:17.291Z,0.35
2022-10-18T03:10:19.821Z,0.38
2022-10-18T03:11:22.767Z,0.30
2022-10-18T03:12:25.260Z,0.50
2022-10-18T03:13:27.701Z,0.43
2022-10-18T03:14:30.088Z,0.50
2022-10-18T03:15:32.433Z,0.40
2022-10-18T03:16:35.006Z,0.40
2022-10-18T03:17:37.330Z,0.40
2022-10-18T03:18:39.748Z,0.40
2022-10-18T03:19:42.303Z,0.30
2022-10-18T03:20:44.661Z,0.40
2022-10-18T03:21:47.044Z,0.60
2022-10-18T03:22:49.472Z,0.43
2022-10-18T03:23:51.904Z,0.50
2022-10-18T03:24:54.303Z,0.40
2022-10-18T03:25:56.693Z,0.40
2022-10-18T03:26:59.159Z,0.40
2022-10-18T03:28:01.513Z,0.43
2022-10-18T03:29:04.173Z,0.47
2022-10-18T03:30:07.175Z,0.40
2022-10-18T03:31:09.663Z,0.50
2022-10-18T03:32:12.083Z,0.45
2022-10-18T03:33:14.517Z,0.35
2022-10-18T03:34:17.730Z,0.40
2022-10-18T03:35:20.577Z,0.40
2022-10-18T03:36:22.947Z,0.43
2022-10-18T03:37:25.383Z,0.40
2022-10-18T03:38:28.131Z,0.50
2022-10-18T03:39:30.427Z,0.47
2022-10-18T03:40:32.879Z,0.40
2022-10-18T03:41:35.279Z,0.43
2022-10-18T03:42:37.960Z,0.57
2022-10-18T03:43:40.406Z,0.35
2022-10-18T03:44:42.905Z,0.40
2022-10-18T03:45:45.263Z,0.40
2022-10-18T03:46:47.676Z,0.45
2022-10-18T03:47:50.077Z,0.40
2022-10-18T03:48:52.427Z,0.40
2022-10-18T03:49:57.130Z,0.40
2022-10-18T03:50:59.997Z,0.40
2022-10-18T03:52:02.485Z,0.50
2022-10-18T03:53:05.396Z,0.40
2022-10-18T03:54:07.828Z,0.40
2022-10-18T03:55:10.226Z,0.50
2022-10-18T03:56:12.727Z,0.40
2022-10-18T03:57:15.135Z,0.50
2022-10-18T03:58:18.278Z,0.30
2022-10-18T03:59:20.770Z,0.40
2022-10-18T04:00:23.303Z,0.40
2022-10-18T04:01:25.713Z,0.43
2022-10-18T04:02:28.085Z,0.43
2022-10-18T04:03:30.516Z,0.52
2022-10-18T04:04:32.902Z,0.47
2022-10-18T04:05:36.609Z,0.40
2022-10-18T04:06:39.044Z,0.40
2022-10-18T04:07:41.559Z,0.45
2022-10-18T04:08:43.990Z,0.30
2022-10-18T04:09:46.444Z,0.38
2022-10-18T04:10:48.858Z,0.32
2022-10-18T04:11:51.549Z,0.50
2022-10-18T04:12:54.383Z,0.40
2022-10-18T04:13:56.781Z,0.45
2022-10-18T04:14:59.170Z,0.52
2022-10-18T04:16:01.705Z,0.40
2022-10-18T04:17:04.873Z,0.50
2022-10-18T04:18:07.400Z,0.43
2022-10-18T04:19:09.911Z,0.50
2022-10-18T04:20:12.688Z,0.50
2022-10-18T04:21:15.102Z,0.40
2022-10-18T04:22:17.585Z,0.47
2022-10-18T04:23:19.961Z,0.32
2022-10-18T04:24:22.434Z,0.60
2022-10-18T04:25:25.315Z,0.40
2022-10-18T04:26:27.820Z,0.30
2022-10-18T04:27:30.469Z,0.38
2022-10-18T04:28:34.251Z,0.50
2022-10-18T04:29:36.756Z,0.40
2022-10-18T04:30:39.098Z,0.50
2022-10-18T04:31:41.576Z,0.52
2022-10-18T04:32:43.915Z,0.40
2022-10-18T04:33:46.341Z,0.40
2022-10-18T04:34:48.789Z,0.50
2022-10-18T04:35:52.666Z,0.40
2022-10-18T04:36:55.153Z,0.43
2022-10-18T04:37:57.561Z,0.40
2022-10-18T04:38:59.967Z,0.60
2022-10-18T04:40:02.386Z,0.40
2022-10-18T04:41:04.923Z,0.43
2022-10-18T04:42:07.344Z,0.50
2022-10-18T04:43:09.795Z,0.47
2022-10-18T04:44:12.209Z,0.40
2022-10-18T04:45:14.627Z,0.40
2022-10-18T04:46:17.240Z,0.43
2022-10-18T04:47:19.935Z,0.52
2022-10-18T04:48:22.444Z,0.30
2022-10-18T04:49:24.892Z,0.40
2022-10-18T04:50:27.567Z,0.40
2022-10-18T04:51:30.267Z,0.38
2022-10-18T04:52:32.743Z,0.43
2022-10-18T04:53:35.220Z,0.50
2022-10-18T04:54:37.579Z,0.32
2022-10-18T04:55:39.961Z,0.50
2022-10-18T04:56:42.398Z,0.45
2022-10-18T04:57:44.824Z,0.40
2022-10-18T04:58:47.260Z,0.40
2022-10-18T04:59:49.758Z,0.50
2022-10-18T05:00:52.310Z,0.40
2022-10-18T05:01:55.048Z,0.50
2022-10-18T05:02:58.137Z,0.38
2022-10-18T05:04:00.611Z,0.40
2022-10-18T05:05:03.065Z,0.50
2022-10-18T05:06:05.940Z,0.52
2022-10-18T05:07:08.426Z,0.50
2022-10-18T05:08:10.878Z,0.43
2022-10-18T05:09:13.396Z,0.45
2022-10-18T05:10:15.954Z,0.50
2022-10-18T05:11:18.435Z,0.50
2022-10-18T05:12:20.809Z,0.50
2022-10-18T05:13:23.206Z,0.50
2022-10-18T05:14:25.635Z,0.32
2022-10-18T05:15:28.161Z,0.40
2022-10-18T05:16:32.325Z,0.50
2022-10-18T05:17:34.643Z,0.40
2022-10-18T05:18:37.168Z,0.40
2022-10-18T05:19:39.662Z,0.50
2022-10-18T05:20:42.113Z,0.40
2022-10-18T05:21:44.568Z,0.40
2022-10-18T05:22:46.977Z,0.40
2022-10-18T05:23:49.392Z,0.50
2022-10-18T05:24:51.839Z,0.50
2022-10-18T05:25:54.258Z,0.60
2022-10-18T05:26:57.122Z,0.35
2022-10-18T05:28:03.428Z,0.47
2022-10-18T05:29:13.550Z,0.50
2022-10-18T05:30:16.091Z,0.60
2022-10-18T05:31:18.627Z,0.40
2022-10-18T05:32:21.191Z,0.50
2022-10-18T05:33:23.928Z,0.40
2022-10-18T05:34:27.340Z,0.60
2022-10-18T05:35:29.800Z,0.40
2022-10-18T05:36:32.189Z,0.47
2022-10-18T05:37:34.693Z,0.35
2022-10-18T05:38:43.115Z,0.32
2022-10-18T05:39:45.883Z,0.40
2022-10-18T05:40:48.621Z,0.45
2022-10-18T05:41:51.136Z,0.50
2022-10-18T05:42:53.798Z,0.50
2022-10-18T05:43:56.233Z,0.40
2022-10-18T05:44:58.642Z,0.43
2022-10-18T05:46:01.047Z,0.40
2022-10-18T05:47:03.447Z,0.40
2022-10-18T05:48:09.463Z,0.50
2022-10-18T05:49:12.825Z,0.43
2022-10-18T05:50:15.447Z,0.50
2022-10-18T05:51:20.801Z,0.50
2022-10-18T05:52:23.259Z,0.40
2022-10-18T05:53:36.326Z,0.50
2022-10-18T05:54:40.748Z,0.40
2022-10-18T05:55:43.310Z,0.47
2022-10-18T05:56:45.791Z,0.60
2022-10-18T05:57:51.526Z,0.60
2022-10-18T05:58:53.871Z,0.40
2022-10-18T05:59:56.238Z,0.60
2022-10-18T06:01:02.319Z,0.50
2022-10-18T06:02:04.826Z,0.50
2022-10-18T06:03:07.264Z,0.43
2022-10-18T06:04:10.382Z,0.30
2022-10-18T06:05:12.715Z,0.40
2022-10-18T06:06:15.645Z,0.50
2022-10-18T06:07:18.083Z,0.40
2022-10-18T06:08:20.460Z,0.40
2022-10-18T06:09:22.841Z,0.50
2022-10-18T06:10:25.474Z,0.40
2022-10-18T06:11:27.845Z,0.32
2022-10-18T06:12:30.287Z,0.45
2022-10-18T06:13:33.915Z,0.40
2022-10-18T06:14:37.504Z,0.30
2022-10-18T06:15:40.163Z,0.40
2022-10-18T06:16:43.482Z,0.30
2022-10-18T06:17:46.070Z,0.35
2022-10-18T06:18:50.186Z,0.40
2022-10-18T06:19:52.580Z,0.50
2022-10-18T06:20:59.172Z,0.52
2022-10-18T06:22:01.642Z,0.40
2022-10-18T06:23:04.078Z,0.52
2022-10-18T06:24:06.767Z,0.50
2022-10-18T06:25:09.645Z,0.50
2022-10-18T06:26:12.143Z,0.50
2022-10-18T06:27:14.815Z,0.50
2022-10-18T06:28:17.304Z,0.50
2022-10-18T06:29:19.760Z,0.40
2022-10-18T06:30:22.168Z,0.50
2022-10-18T06:31:24.624Z,0.35
2022-10-18T06:32:27.045Z,0.43
2022-10-18T06:33:31.634Z,0.52
2022-10-18T06:34:34.561Z,0.40
2022-10-18T06:35:36.943Z,0.50
2022-10-18T06:36:39.384Z,0.35
2022-10-18T06:38:45.474Z,0.47
2022-10-18T06:39:47.867Z,0.50
2022-10-18T06:40:50.521Z,0.30
2022-10-18T06:41:52.992Z,0.50
2022-10-18T06:43:05.751Z,0.40
2022-10-18T06:44:14.367Z,0.40
2022-10-18T06:45:18.300Z,0.40
2022-10-18T06:46:20.760Z,0.43
2022-10-18T06:47:23.258Z,0.50
2022-10-18T06:48:25.696Z,0.50
2022-10-18T06:49:28.046Z,0.52
2022-10-18T06:50:30.603Z,0.50
2022-10-18T06:51:33.139Z,0.40
2022-10-18T06:52:35.467Z,0.60
2022-10-18T06:53:44.156Z,0.43
2022-10-18T06:54:51.438Z,0.50
2022-10-18T06:56:00.688Z,0.40
2022-10-18T06:57:03.260Z,0.50
2022-10-18T06:58:05.721Z,0.40
2022-10-18T06:59:08.278Z,0.40
2022-10-18T07:00:11.436Z,0.50
2022-10-18T07:01:16.313Z,0.47
2022-10-18T07:02:18.983Z,0.50
2022-10-18T07:03:21.950Z,0.57
2022-10-18T07:04:24.301Z,0.50
2022-10-18T07:05:27.471Z,0.50
2022-10-18T07:06:30.026Z,0.40
2022-10-18T07:07:32.499Z,0.57
2022-10-18T07:08:36.097Z,0.70
2022-10-18T07:09:38.769Z,0.57
2022-10-18T07:10:41.320Z,0.50
2022-10-18T07:11:43.711Z,0.60
2022-10-18T07:12:46.168Z,0.45
2022-10-18T07:13:48.535Z,0.55
2022-10-18T07:14:50.967Z,0.60
2022-10-18T07:16:08.651Z,0.60
2022-10-18T07:17:11.550Z,0.80
2022-10-18T07:18:17.150Z,0.80
2022-10-18T07:19:19.671Z,0.80
2022-10-18T07:20:22.054Z,0.65
2022-10-18T07:21:26.241Z,0.80
2022-10-18T07:22:30.377Z,0.90
2022-10-18T07:23:35.026Z,0.80
2022-10-18T07:24:37.444Z,0.70
2022-10-18T07:25:39.822Z,0.60
2022-10-18T07:26:42.521Z,0.80
2022-10-18T07:27:45.079Z,1.00
2022-10-18T07:28:50.935Z,1.15
2022-10-18T07:29:53.367Z,0.80
2022-10-18T07:30:56.128Z,0.85
2022-10-18T07:31:58.572Z,0.60
2022-10-18T07:33:00.967Z,0.73
2022-10-18T07:34:07.392Z,0.88
2022-10-18T07:36:17.742Z,0.90
2022-10-18T07:37:20.128Z,0.85
2022-10-18T07:38:23.582Z,0.80
2022-10-18T07:39:26.100Z,1.00
2022-10-18T07:40:28.496Z,0.95
2022-10-18T07:41:33.423Z,0.90
2022-10-18T07:42:38.908Z,0.82
2022-10-18T07:43:47.504Z,0.70
2022-10-18T07:44:49.974Z,1.00
2022-10-18T07:46:01.211Z,1.02
2022-10-18T07:47:03.687Z,1.20
2022-10-18T07:48:06.455Z,1.15
2022-10-18T07:49:08.933Z,1.20
2022-10-18T07:50:11.310Z,1.00
2022-10-18T07:51:14.329Z,1.17
2022-10-18T07:52:16.794Z,1.10
2022-10-18T07:53:19.414Z,1.20
2022-10-18T07:54:22.502Z,1.00
2022-10-18T07:55:24.920Z,0.90
2022-10-18T07:56:27.420Z,1.10
2022-10-18T07:57:30.213Z,0.90
2022-10-18T07:58:34.074Z,1.00
2022-10-18T07:59:36.911Z,1.10
2022-10-18T08:00:40.210Z,1.00
2022-10-18T08:01:42.697Z,1.13
2022-10-18T08:02:45.150Z,0.98
2022-10-18T08:03:47.646Z,1.38
2022-10-18T08:04:50.189Z,1.08
2022-10-18T08:05:54.373Z,1.30
2022-10-18T08:06:56.793Z,1.00
2022-10-18T08:08:01.011Z,1.63
2022-10-18T08:09:05.080Z,1.20
2022-10-18T08:10:08.001Z,1.13
2022-10-18T08:11:15.361Z,1.60
2022-10-18T08:12:17.888Z,1.58
2022-10-18T08:13:20.957Z,1.35
2022-10-18T08:14:23.329Z,1.60
2022-10-18T08:15:25.902Z,1.05
2022-10-18T08:17:35.068Z,1.45
2022-10-18T08:18:38.497Z,1.50
2022-10-18T08:19:52.751Z,1.52
2022-10-18T08:21:06.356Z,1.50
2022-10-18T08:22:08.878Z,1.30
2022-10-18T08:23:11.724Z,1.02
2022-10-18T08:24:14.118Z,1.10
2022-10-18T08:25:16.813Z,1.25
2022-10-18T08:26:21.311Z,1.30
2022-10-18T08:27:26.248Z,1.60
2022-10-18T08:28:29.145Z,1.42
2022-10-18T08:29:32.161Z,1.38
2022-10-18T08:30:36.249Z,1.27
2022-10-18T08:31:38.812Z,1.15
2022-10-18T08:32:41.211Z,1.10
2022-10-18T08:33:44.522Z,1.42
2022-10-18T08:34:47.339Z,1.50
2022-10-18T08:36:00.379Z,1.00
2022-10-18T08:37:03.507Z,1.02
2022-10-18T08:38:07.663Z,1.30
2022-10-18T08:39:10.014Z,1.50
2022-10-18T08:40:16.097Z,1.38
2022-10-18T08:41:36.686Z,1.40
2022-10-18T08:43:00.487Z,1.15
2022-10-18T08:44:16.044Z,1.23
2022-10-18T08:45:30.515Z,0.95
2022-10-18T08:46:45.882Z,0.85
2022-10-18T08:47:52.028Z,1.02
2022-10-18T08:48:56.803Z,1.23
2022-10-18T08:50:07.658Z,1.13
2022-10-18T08:51:31.703Z,1.20
2022-10-18T08:52:57.754Z,1.17
2022-10-18T08:54:06.761Z,1.00
2022-10-18T08:55:17.249Z,1.00
2022-10-18T08:56:24.102Z,1.17
2022-10-18T08:57:26.701Z,1.10
2022-10-18T08:58:33.547Z,0.98
2022-10-18T08:59:40.824Z,1.05
2022-10-18T09:00:54.943Z,0.82
2022-10-18T09:02:15.447Z,1.00
2022-10-18T09:03:44.596Z,1.17
2022-10-18T09:04:49.725Z,0.70
2022-10-18T09:06:05.161Z,0.80
2022-10-18T09:07:28.605Z,0.95
2022-10-18T09:08:42.887Z,0.90
2022-10-18T09:10:03.005Z,0.90
2022-10-18T09:11:23.374Z,1.02
2022-10-18T09:12:28.976Z,1.08
2022-10-18T09:13:53.454Z,1.00
2022-10-18T09:15:10.685Z,1.02
2022-10-18T09:16:42.958Z,1.10
2022-10-18T09:17:57.212Z,1.17
2022-10-18T09:19:13.714Z,0.85
2022-10-18T09:20:44.971Z,1.00
2022-10-18T09:22:00.907Z,0.98
2022-10-18T09:23:27.105Z,0.90
2022-10-18T09:24:39.306Z,0.77
2022-10-18T09:25:48.652Z,1.20
2022-10-18T09:27:03.930Z,1.17
2022-10-18T09:28:16.916Z,0.80
2022-10-18T09:29:48.565Z,1.13
2022-10-18T09:31:04.481Z,1.10
2022-10-18T09:32:44.922Z,1.00
2022-10-18T09:34:01.933Z,1.00
2022-10-18T09:35:12.143Z,1.02
2022-10-18T09:36:20.797Z,0.90
2022-10-18T09:37:27.239Z,1.10
2022-10-18T09:39:00.392Z,0.80
2022-10-18T09:40:18.154Z,0.95
2022-10-18T09:41:59.873Z,0.98
2022-10-18T09:43:11.792Z,1.10
2022-10-18T09:44:31.871Z,1.00
2022-10-18T09:45:41.498Z,0.93
2022-10-18T09:46:50.512Z,1.02
2022-10-18T09:48:13.298Z,1.00
2022-10-18T09:49:24.288Z,1.00
2022-10-18T09:50:36.606Z,1.10
2022-10-18T09:51:42.225Z,0.90
2022-10-18T09:52:53.039Z,0.77
2022-10-18T09:54:11.498Z,0.80
2022-10-18T09:55:26.841Z,1.00
2022-10-18T09:56:47.775Z,1.00
2022-10-18T09:57:58.114Z,1.02
2022-10-18T09:59:00.902Z,1.15
2022-10-18T10:00:06.943Z,0.80
2022-10-18T10:01:11.551Z,0.85
2022-10-18T10:02:19.636Z,0.90
2022-10-18T10:03:22.059Z,1.08
2022-10-18T10:04:24.670Z,0.80
2022-10-18T10:05:27.322Z,0.70
2022-10-18T10:06:34.701Z,1.10
2022-10-18T10:07:42.845Z,0.88
2022-10-18T10:08:50.185Z,0.80
2022-10-18T10:10:13.092Z,0.88
2022-10-18T10:11:40.410Z,0.73
2022-10-18T10:12:43.092Z,0.60
2022-10-18T10:13:45.598Z,0.70
2022-10-18T10:14:48.050Z,0.88
2022-10-18T10:15:56.417Z,0.80
2022-10-18T10:17:05.758Z,0.90
2022-10-18T10:18:21.476Z,0.80
2022-10-18T10:19:28.086Z,0.75
2022-10-18T10:20:43.842Z,0.75
2022-10-18T10:21:48.524Z,0.80
2022-10-18T10:22:52.553Z,0.57
2022-10-18T10:23:57.920Z,0.85
2022-10-18T10:25:00.510Z,0.77
2022-10-18T10:26:25.177Z,0.73
2022-10-18T10:27:44.032Z,0.80
2022-10-18T10:28:49.015Z,0.73
2022-10-18T10:29:56.627Z,0.80
2022-10-18T10:31:25.067Z,0.88
2022-10-18T10:32:30.863Z,0.80
2022-10-18T10:33:37.495Z,0.75
2022-10-18T10:34:43.849Z,0.95
2022-10-18T10:35:59.632Z,0.80
2022-10-18T10:37:02.659Z,0.85
2022-10-18T10:38:05.817Z,0.55
2022-10-18T10:39:13.302Z,0.80
2022-10-18T10:40:20.542Z,0.63
2022-10-18T10:41:24.689Z,0.75
2022-10-18T10:42:27.256Z,0.85
2022-10-18T10:43:39.278Z,0.82
2022-10-18T10:44:55.296Z,0.80
2022-10-18T10:45:57.664Z,0.80
2022-10-18T10:47:00.570Z,0.90
2022-10-18T10:48:14.245Z,0.70
2022-10-18T10:49:39.519Z,0.70
2022-10-18T10:51:01.270Z,0.63
2022-10-18T10:52:26.265Z,0.60
2022-10-18T10:54:36.786Z,0.88
2022-10-18T10:55:39.446Z,0.60
2022-10-18T10:57:16.531Z,0.80
2022-10-18T10:58:19.485Z,0.82
2022-10-18T10:59:24.157Z,0.77
2022-10-18T11:00:44.589Z,0.55
2022-10-18T11:01:50.201Z,0.63
2022-10-18T11:03:28.109Z,0.80
2022-10-18T11:04:32.245Z,0.70
2022-10-18T11:05:47.090Z,0.70
2022-10-18T11:07:02.340Z,1.00
2022-10-18T11:08:10.174Z,0.60
2022-10-18T11:09:35.731Z,0.60
2022-10-18T11:11:02.985Z,0.60
2022-10-18T11:12:27.445Z,0.73
2022-10-18T11:14:25.405Z,0.80
2022-10-18T11:15:49.973Z,0.98
2022-10-18T11:17:29.346Z,0.70
2022-10-18T11:18:35.142Z,0.70
2022-10-18T11:20:01.299Z,0.77
2022-10-18T11:21:29.175Z,0.63
2022-10-18T11:22:53.308Z,0.60
2022-10-18T11:23:57.268Z,0.70
2022-10-18T11:25:01.628Z,0.80
2022-10-18T11:26:12.633Z,0.60
2022-10-18T11:27:25.482Z,0.60
2022-10-18T11:28:38.920Z,0.68
2022-10-18T11:30:02.646Z,0.60
2022-10-18T11:31:11.818Z,0.60
2022-10-18T11:32:20.225Z,0.60
2022-10-18T11:33:50.083Z,0.60
2022-10-18T11:35:20.377Z,0.60
2022-10-18T11:36:56.313Z,0.57
2022-10-18T11:38:31.047Z,0.50
2022-10-18T11:40:10.050Z,0.55
2022-10-18T11:41:45.563Z,1.15
2022-10-18T11:43:05.720Z,0.50
2022-10-18T11:44:19.083Z,0.40
2022-10-18T11:45:48.630Z,0.60
2022-10-18T11:47:05.831Z,0.55
2022-10-18T11:48:36.621Z,0.70
2022-10-18T11:49:52.615Z,0.50
2022-10-18T11:51:05.630Z,0.50
2022-10-18T11:52:35.706Z,0.55
2022-10-18T11:53:56.577Z,0.50
2022-10-18T11:55:32.997Z,0.60
2022-10-18T11:56:43.015Z,0.55
2022-10-18T11:58:03.484Z,0.50
2022-10-18T11:59:28.114Z,0.60
2022-10-18T12:00:49.200Z,0.47
2022-10-18T12:02:12.875Z,0.50
2022-10-18T12:03:33.569Z,0.50
2022-10-18T12:04:49.092Z,0.77
2022-10-18T12:06:19.417Z,0.60
2022-10-18T12:07:27.769Z,0.50
2022-10-18T12:08:52.990Z,0.40
2022-10-18T12:09:56.563Z,0.57
2022-10-18T12:11:06.602Z,0.50
2022-10-18T12:12:16.449Z,0.55
2022-10-18T12:13:36.764Z,0.57
2022-10-18T12:15:02.394Z,0.52
2022-10-18T12:16:08.162Z,0.55
2022-10-18T12:17:44.068Z,0.50
2022-10-18T12:19:01.824Z,0.70
2022-10-18T12:20:32.390Z,0.43
2022-10-18T12:21:35.772Z,0.57
2022-10-18T12:23:13.942Z,0.40
2022-10-18T12:24:21.872Z,0.50
2022-10-18T12:25:25.296Z,0.50
2022-10-18T12:26:29.630Z,0.60
2022-10-18T12:27:40.217Z,0.70
2022-10-18T12:29:21.885Z,0.50
2022-10-18T12:30:42.236Z,0.50
2022-10-18T12:31:56.073Z,0.43
2022-10-18T12:33:27.102Z,0.50
2022-10-18T12:34:56.980Z,0.50
2022-10-18T12:36:17.618Z,0.43
2022-10-18T12:37:46.685Z,0.50
2022-10-18T12:38:57.291Z,0.55
2022-10-18T12:40:14.283Z,0.63
2022-10-18T12:41:26.998Z,0.43
2022-10-18T12:42:32.318Z,0.40
2022-10-18T12:43:38.423Z,0.60
2022-10-18T12:44:41.016Z,0.40
2022-10-18T12:45:58.189Z,0.57
2022-10-18T12:47:03.998Z,0.50
2022-10-18T12:48:07.848Z,0.50
2022-10-18T12:49:12.779Z,0.40
2022-10-18T12:50:37.565Z,0.50
2022-10-18T12:51:55.079Z,0.40
2022-10-18T12:53:19.309Z,0.50
2022-10-18T12:54:30.477Z,0.60
2022-10-18T12:55:45.459Z,0.40
2022-10-18T12:56:48.274Z,0.50
2022-10-18T12:57:53.814Z,0.45
2022-10-18T12:59:14.852Z,0.40
2022-10-18T13:00:49.025Z,0.50
2022-10-18T13:01:51.652Z,0.63
2022-10-18T13:03:20.389Z,0.40
2022-10-18T13:04:28.893Z,0.40
2022-10-18T13:05:55.277Z,0.52
2022-10-18T13:06:58.426Z,0.50
2022-10-18T13:08:38.245Z,0.57
2022-10-18T13:09:44.502Z,0.50
2022-10-18T13:10:47.031Z,0.50
2022-10-18T13:11:50.381Z,0.68
2022-10-18T13:12:59.036Z,0.40
2022-10-18T13:14:59.075Z,0.40
2022-10-18T13:16:34.250Z,0.38
2022-10-18T13:17:56.070Z,0.40
2022-10-18T13:19:32.306Z,0.43
2022-10-18T13:20:54.836Z,0.50
2022-10-18T13:22:26.547Z,0.43
2022-10-18T13:23:55.553Z,0.40
2022-10-18T13:25:05.269Z,0.40
2022-10-18T13:26:22.474Z,0.40
2022-10-18T13:27:36.329Z,0.50
2022-10-18T13:29:02.936Z,0.50
2022-10-18T13:30:40.898Z,0.50
2022-10-18T13:31:52.168Z,0.40
2022-10-18T13:33:28.489Z,0.50
2022-10-18T13:34:35.305Z,0.40
2022-10-18T13:35:46.807Z,0.57
2022-10-18T13:37:15.628Z,0.50
2022-10-18T13:38:55.605Z,0.40
2022-10-18T13:40:24.265Z,0.40
2022-10-18T13:41:35.399Z,0.50
2022-10-18T13:42:49.474Z,0.60
2022-10-18T13:44:11.555Z,0.60
2022-10-18T13:45:32.084Z,0.40
2022-10-18T13:46:34.456Z,0.50
2022-10-18T13:47:38.196Z,0.60
2022-10-18T13:48:40.897Z,0.30
2022-10-18T13:50:17.978Z,0.30
2022-10-18T13:51:43.281Z,0.32
2022-10-18T13:52:54.500Z,0.40
2022-10-18T13:54:24.262Z,0.40
2022-10-18T13:55:40.720Z,0.40
2022-10-18T13:56:54.252Z,0.50
2022-10-18T13:58:30.545Z,0.40
2022-10-18T13:59:59.761Z,0.40
2022-10-18T14:01:16.154Z,0.40
2022-10-18T14:02:49.809Z,0.40
2022-10-18T14:04:10.942Z,0.40
2022-10-18T14:05:36.193Z,0.45
2022-10-18T14:06:42.483Z,0.35
2022-10-18T14:07:46.061Z,0.50
2022-10-18T14:09:03.350Z,0.88
2022-10-18T14:10:43.313Z,0.40
2022-10-18T14:11:53.867Z,0.50
2022-10-18T14:13:02.373Z,0.40
2022-10-18T14:14:13.510Z,0.32
2022-10-18T14:15:26.824Z,0.30
2022-10-18T14:16:35.106Z,0.50
2022-10-18T14:17:49.362Z,0.30
2022-10-18T14:18:54.685Z,0.30
2022-10-18T14:20:03.192Z,0.20
2022-10-18T14:21:16.914Z,0.10
2022-10-18T14:22:34.930Z,0.10
2022-10-18T14:23:44.652Z,0.10
2022-10-18T14:24:51.520Z,0.10
2022-10-18T14:26:07.510Z,0.10
2022-10-18T14:27:12.991Z,0.10
2022-10-18T14:28:27.452Z,0.10
2022-10-18T14:29:40.756Z,0.10
2022-10-18T14:30:54.061Z,0.10
2022-10-18T14:31:57.997Z,0.10
2022-10-18T14:33:00.542Z,0.10
2022-10-18T14:34:03.447Z,0.10
2022-10-18T14:35:39.627Z,0.10
2022-10-18T14:37:43.716Z,0.10
2022-10-18T14:38:54.408Z,0.10
2022-10-18T14:39:56.978Z,0.10
2022-10-18T14:41:27.358Z,0.10
2022-10-18T14:42:30.168Z,0.10
2022-10-18T14:43:32.571Z,0.10
2022-10-18T14:44:35.022Z,0.10
2022-10-18T14:45:37.667Z,0.10
2022-10-18T14:46:58.845Z,0.10
2022-10-18T14:48:27.651Z,0.10
2022-10-18T14:49:30.895Z,0.10
2022-10-18T14:50:33.875Z,0.10
2022-10-18T14:51:36.808Z,0.10
2022-10-18T14:52:39.271Z,0.10
2022-10-18T14:53:41.897Z,0.10
2022-10-18T14:54:44.554Z,0.10
2022-10-18T14:55:58.068Z,0.10
2022-10-18T14:57:05.923Z,0.10
2022-10-18T14:58:15.577Z,0.10
2022-10-18T14:59:20.389Z,0.10
2022-10-18T15:00:48.995Z,0.10
2022-10-18T15:01:52.738Z,0.10
2022-10-18T15:02:55.221Z,0.10
2022-10-18T15:03:59.451Z,0.10
2022-10-18T15:05:20.790Z,0.10
2022-10-18T15:06:23.232Z,0.10
2022-10-18T15:07:29.328Z,0.10
2022-10-18T15:08:39.858Z,0.10
2022-10-18T15:09:43.225Z,0.10
2022-10-18T15:10:45.895Z,0.10
2022-10-18T15:11:49.330Z,0.10
2022-10-18T15:13:10.227Z,0.10
2022-10-18T15:14:17.841Z,0.10
2022-10-18T15:15:24.089Z,0.10
2022-10-18T15:16:30.396Z,0.10
2022-10-18T15:17:35.208Z,0.10
2022-10-18T15:18:37.858Z,0.10
2022-10-18T15:20:00.457Z,0.10
2022-10-18T15:21:22.343Z,0.10
2022-10-18T15:22:31.612Z,0.10
2022-10-18T15:23:35.328Z,0.10
2022-10-18T15:24:40.482Z,0.10